sensor_id;sensor_type;location;lat;lon;timestamp;P1;durP1;ratioP1;P2;durP2;ratioP2
73684;SDS011;61985;51.070;14.064;2022-08-03T00:00:33;7.13;;;3.70;;
73684;SDS011;61985;51.070;14.064;2022-08-03T00:02:59;5.10;;;3.58;;
73684;SDS011;61985;51.070;14.064;2022-08-03T00:05:24;5.45;;;3.75;;
73684;SDS011;61985;51.070;14.064;2022-08-03T00:07:49;6.07;;;3.83;;
73684;SDS011;61985;51.070;14.064;2022-08-03T00:10:15;8.88;;;3.70;;
73684;SDS011;61985;51.070;14.064;2022-08-03T00:12:40;6.13;;;3.47;;
73684;SDS011;61985;51.070;14.064;2022-08-03T00:15:06;5.13;;;3.58;;
73684;SDS011;61985;51.070;14.064;2022-08-03T00:17:32;6.13;;;4.00;;
73684;SDS011;61985;51.070;14.064;2022-08-03T00:19:57;6.05;;;3.40;;
73684;SDS011;61985;51.070;14.064;2022-08-03T00:22:23;6.20;;;3.75;;
73684;SDS011;61985;51.070;14.064;2022-08-03T00:24:48;6.80;;;3.88;;
73684;SDS011;61985;51.070;14.064;2022-08-03T00:27:13;7.72;;;4.07;;
73684;SDS011;61985;51.070;14.064;2022-08-03T00:29:38;17.65;;;4.68;;
73684;SDS011;61985;51.070;14.064;2022-08-03T00:32:04;7.13;;;4.70;;
73684;SDS011;61985;51.070;14.064;2022-08-03T00:34:29;10.85;;;4.07;;
73684;SDS011;61985;51.070;14.064;2022-08-03T00:36:55;9.30;;;4.03;;
73684;SDS011;61985;51.070;14.064;2022-08-03T00:39:21;7.28;;;3.97;;
73684;SDS011;61985;51.070;14.064;2022-08-03T00:41:46;9.60;;;3.80;;
73684;SDS011;61985;51.070;14.064;2022-08-03T00:44:12;5.80;;;3.85;;
73684;SDS011;61985;51.070;14.064;2022-08-03T00:46:38;6.15;;;4.10;;
73684;SDS011;61985;51.070;14.064;2022-08-03T00:49:03;6.68;;;4.10;;
73684;SDS011;61985;51.070;14.064;2022-08-03T00:51:28;7.72;;;3.90;;
73684;SDS011;61985;51.070;14.064;2022-08-03T00:53:54;7.50;;;3.80;;
73684;SDS011;61985;51.070;14.064;2022-08-03T00:56:19;9.27;;;4.00;;
73684;SDS011;61985;51.070;14.064;2022-08-03T00:58:45;7.38;;;4.10;;
73684;SDS011;61985;51.070;14.064;2022-08-03T01:01:11;6.45;;;3.83;;
73684;SDS011;61985;51.070;14.064;2022-08-03T01:03:36;7.50;;;3.90;;
73684;SDS011;61985;51.070;14.064;2022-08-03T01:09:00;7.05;;;4.00;;
73684;SDS011;61985;51.070;14.064;2022-08-03T01:11:31;5.75;;;3.45;;
73684;SDS011;61985;51.070;14.064;2022-08-03T01:19:35;6.38;;;3.80;;
73684;SDS011;61985;51.070;14.064;2022-08-03T01:22:31;7.28;;;4.10;;
73684;SDS011;61985;51.070;14.064;2022-08-03T01:30:14;6.35;;;4.20;;
73684;SDS011;61985;51.070;14.064;2022-08-03T01:32:41;7.15;;;4.13;;
73684;SDS011;61985;51.070;14.064;2022-08-03T01:35:13;10.25;;;4.80;;
73684;SDS011;61985;51.070;14.064;2022-08-03T01:37:44;10.55;;;4.60;;
73684;SDS011;61985;51.070;14.064;2022-08-03T01:40:16;6.05;;;4.18;;
73684;SDS011;61985;51.070;14.064;2022-08-03T01:42:43;7.03;;;4.30;;
73684;SDS011;61985;51.070;14.064;2022-08-03T01:45:12;6.47;;;4.38;;
73684;SDS011;61985;51.070;14.064;2022-08-03T01:47:39;7.07;;;4.50;;
73684;SDS011;61985;51.070;14.064;2022-08-03T01:50:08;7.00;;;4.10;;
73684;SDS011;61985;51.070;14.064;2022-08-03T01:52:36;9.75;;;4.30;;
73684;SDS011;61985;51.070;14.064;2022-08-03T01:55:05;8.63;;;4.03;;
73684;SDS011;61985;51.070;14.064;2022-08-03T01:57:32;7.35;;;4.05;;
73684;SDS011;61985;51.070;14.064;2022-08-03T01:59:59;8.13;;;3.97;;
73684;SDS011;61985;51.070;14.064;2022-08-03T02:02:25;8.63;;;4.50;;
73684;SDS011;61985;51.070;14.064;2022-08-03T02:04:51;9.40;;;4.65;;
73684;SDS011;61985;51.070;14.064;2022-08-03T02:07:20;10.85;;;3.92;;
73684;SDS011;61985;51.070;14.064;2022-08-03T02:09:46;6.05;;;4.15;;
73684;SDS011;61985;51.070;14.064;2022-08-03T02:12:14;7.72;;;4.30;;
73684;SDS011;61985;51.070;14.064;2022-08-03T02:14:42;7.60;;;4.60;;
73684;SDS011;61985;51.070;14.064;2022-08-03T02:17:08;9.07;;;4.25;;
73684;SDS011;61985;51.070;14.064;2022-08-03T02:19:35;6.18;;;4.28;;
73684;SDS011;61985;51.070;14.064;2022-08-03T02:22:02;6.90;;;4.18;;
73684;SDS011;61985;51.070;14.064;2022-08-03T02:24:29;9.63;;;4.15;;
73684;SDS011;61985;51.070;14.064;2022-08-03T02:26:56;8.73;;;4.43;;
73684;SDS011;61985;51.070;14.064;2022-08-03T02:29:26;9.73;;;4.68;;
73684;SDS011;61985;51.070;14.064;2022-08-03T02:31:56;8.45;;;5.00;;
73684;SDS011;61985;51.070;14.064;2022-08-03T02:34:24;10.20;;;5.05;;
73684;SDS011;61985;51.070;14.064;2022-08-03T02:36:53;9.25;;;4.60;;
73684;SDS011;61985;51.070;14.064;2022-08-03T02:39:24;9.20;;;4.97;;
73684;SDS011;61985;51.070;14.064;2022-08-03T02:41:53;9.13;;;4.53;;
73684;SDS011;61985;51.070;14.064;2022-08-03T02:44:26;9.23;;;4.90;;
73684;SDS011;61985;51.070;14.064;2022-08-03T02:46:56;7.65;;;5.05;;
73684;SDS011;61985;51.070;14.064;2022-08-03T02:49:25;8.68;;;4.88;;
73684;SDS011;61985;51.070;14.064;2022-08-03T02:51:52;8.35;;;4.75;;
73684;SDS011;61985;51.070;14.064;2022-08-03T02:54:19;7.95;;;4.82;;
73684;SDS011;61985;51.070;14.064;2022-08-03T02:56:47;7.93;;;4.50;;
73684;SDS011;61985;51.070;14.064;2022-08-03T02:59:13;13.35;;;5.13;;
73684;SDS011;61985;51.070;14.064;2022-08-03T03:01:42;10.05;;;5.20;;
73684;SDS011;61985;51.070;14.064;2022-08-03T03:04:08;7.90;;;4.80;;
73684;SDS011;61985;51.070;14.064;2022-08-03T03:06:35;7.82;;;4.68;;
73684;SDS011;61985;51.070;14.064;2022-08-03T03:09:02;10.02;;;5.70;;
73684;SDS011;61985;51.070;14.064;2022-08-03T03:11:27;8.43;;;4.43;;
73684;SDS011;61985;51.070;14.064;2022-08-03T03:13:53;7.68;;;4.43;;
73684;SDS011;61985;51.070;14.064;2022-08-03T03:16:21;10.85;;;5.65;;
73684;SDS011;61985;51.070;14.064;2022-08-03T03:18:47;7.60;;;4.97;;
73684;SDS011;61985;51.070;14.064;2022-08-03T03:21:15;10.00;;;4.80;;
73684;SDS011;61985;51.070;14.064;2022-08-03T03:23:42;8.90;;;5.13;;
73684;SDS011;61985;51.070;14.064;2022-08-03T03:26:08;10.95;;;4.95;;
73684;SDS011;61985;51.070;14.064;2022-08-03T03:28:37;9.80;;;4.80;;
73684;SDS011;61985;51.070;14.064;2022-08-03T03:31:03;7.88;;;4.35;;
73684;SDS011;61985;51.070;14.064;2022-08-03T03:33:30;7.75;;;5.00;;
73684;SDS011;61985;51.070;14.064;2022-08-03T03:35:56;7.90;;;5.10;;
73684;SDS011;61985;51.070;14.064;2022-08-03T03:38:22;7.88;;;4.80;;
73684;SDS011;61985;51.070;14.064;2022-08-03T03:40:48;10.50;;;5.15;;
73684;SDS011;61985;51.070;14.064;2022-08-03T03:43:14;8.68;;;5.03;;
73684;SDS011;61985;51.070;14.064;2022-08-03T03:45:42;10.85;;;5.28;;
73684;SDS011;61985;51.070;14.064;2022-08-03T03:48:08;13.15;;;6.72;;
73684;SDS011;61985;51.070;14.064;2022-08-03T03:50:34;9.80;;;5.22;;
73684;SDS011;61985;51.070;14.064;2022-08-03T03:53:01;9.15;;;5.40;;
73684;SDS011;61985;51.070;14.064;2022-08-03T03:55:27;9.80;;;5.10;;
73684;SDS011;61985;51.070;14.064;2022-08-03T03:57:53;8.77;;;5.10;;
73684;SDS011;61985;51.070;14.064;2022-08-03T04:00:19;9.13;;;5.38;;
73684;SDS011;61985;51.070;14.064;2022-08-03T04:02:44;10.48;;;4.90;;
73684;SDS011;61985;51.070;14.064;2022-08-03T04:05:10;12.00;;;5.68;;
73684;SDS011;61985;51.070;14.064;2022-08-03T04:07:56;7.40;;;5.28;;
73684;SDS011;61985;51.070;14.064;2022-08-03T04:10:42;9.05;;;5.53;;
73684;SDS011;61985;51.070;14.064;2022-08-03T04:13:26;10.43;;;5.60;;
73684;SDS011;61985;51.070;14.064;2022-08-03T04:15:56;11.63;;;5.50;;
73684;SDS011;61985;51.070;14.064;2022-08-03T04:18:22;7.85;;;4.97;;
73684;SDS011;61985;51.070;14.064;2022-08-03T04:20:49;9.00;;;5.20;;
73684;SDS011;61985;51.070;14.064;2022-08-03T04:23:16;11.13;;;5.35;;
73684;SDS011;61985;51.070;14.064;2022-08-03T04:25:46;8.45;;;5.28;;
73684;SDS011;61985;51.070;14.064;2022-08-03T04:28:13;11.57;;;5.68;;
73684;SDS011;61985;51.070;14.064;2022-08-03T04:30:40;10.23;;;5.50;;
73684;SDS011;61985;51.070;14.064;2022-08-03T04:33:12;7.18;;;5.30;;
73684;SDS011;61985;51.070;14.064;2022-08-03T04:35:38;7.82;;;5.55;;
73684;SDS011;61985;51.070;14.064;2022-08-03T04:38:07;14.80;;;5.88;;
73684;SDS011;61985;51.070;14.064;2022-08-03T04:40:33;11.50;;;5.80;;
73684;SDS011;61985;51.070;14.064;2022-08-03T04:43:01;9.50;;;5.60;;
73684;SDS011;61985;51.070;14.064;2022-08-03T04:45:28;11.05;;;5.70;;
73684;SDS011;61985;51.070;14.064;2022-08-03T04:47:54;9.98;;;5.93;;
73684;SDS011;61985;51.070;14.064;2022-08-03T04:50:20;8.30;;;5.20;;
73684;SDS011;61985;51.070;14.064;2022-08-03T04:52:46;10.07;;;5.25;;
73684;SDS011;61985;51.070;14.064;2022-08-03T04:55:23;11.10;;;4.82;;
73684;SDS011;61985;51.070;14.064;2022-08-03T04:57:52;9.95;;;5.38;;
73684;SDS011;61985;51.070;14.064;2022-08-03T05:00:18;9.38;;;5.15;;
73684;SDS011;61985;51.070;14.064;2022-08-03T05:02:43;8.63;;;4.63;;
73684;SDS011;61985;51.070;14.064;2022-08-03T05:05:09;9.98;;;5.90;;
73684;SDS011;61985;51.070;14.064;2022-08-03T05:07:35;10.55;;;5.05;;
73684;SDS011;61985;51.070;14.064;2022-08-03T05:10:02;11.50;;;5.13;;
73684;SDS011;61985;51.070;14.064;2022-08-03T05:12:31;6.70;;;4.60;;
73684;SDS011;61985;51.070;14.064;2022-08-03T05:14:56;10.43;;;4.60;;
73684;SDS011;61985;51.070;14.064;2022-08-03T05:17:22;5.85;;;3.85;;
73684;SDS011;61985;51.070;14.064;2022-08-03T05:19:47;6.88;;;4.15;;
73684;SDS011;61985;51.070;14.064;2022-08-03T05:22:12;5.63;;;3.80;;
73684;SDS011;61985;51.070;14.064;2022-08-03T05:24:37;8.50;;;3.65;;
73684;SDS011;61985;51.070;14.064;2022-08-03T05:27:03;5.68;;;3.80;;
73684;SDS011;61985;51.070;14.064;2022-08-03T05:29:28;8.07;;;3.80;;
73684;SDS011;61985;51.070;14.064;2022-08-03T05:31:54;6.13;;;3.65;;
73684;SDS011;61985;51.070;14.064;2022-08-03T05:34:19;7.82;;;3.90;;
73684;SDS011;61985;51.070;14.064;2022-08-03T05:36:44;7.43;;;4.10;;
73684;SDS011;61985;51.070;14.064;2022-08-03T05:39:10;5.63;;;3.65;;
73684;SDS011;61985;51.070;14.064;2022-08-03T05:41:35;6.32;;;4.20;;
73684;SDS011;61985;51.070;14.064;2022-08-03T05:44:00;6.10;;;3.88;;
73684;SDS011;61985;51.070;14.064;2022-08-03T05:46:26;7.68;;;3.85;;
73684;SDS011;61985;51.070;14.064;2022-08-03T05:48:52;9.52;;;4.05;;
73684;SDS011;61985;51.070;14.064;2022-08-03T05:51:17;6.63;;;3.67;;
73684;SDS011;61985;51.070;14.064;2022-08-03T05:53:43;7.20;;;3.42;;
73684;SDS011;61985;51.070;14.064;2022-08-03T05:56:09;8.05;;;3.85;;
73684;SDS011;61985;51.070;14.064;2022-08-03T05:58:34;5.07;;;3.53;;
73684;SDS011;61985;51.070;14.064;2022-08-03T06:01:00;6.88;;;4.00;;
73684;SDS011;61985;51.070;14.064;2022-08-03T06:03:25;5.93;;;3.50;;
73684;SDS011;61985;51.070;14.064;2022-08-03T06:05:52;6.07;;;3.60;;
73684;SDS011;61985;51.070;14.064;2022-08-03T06:08:18;5.88;;;3.25;;
73684;SDS011;61985;51.070;14.064;2022-08-03T06:10:44;7.55;;;3.60;;
73684;SDS011;61985;51.070;14.064;2022-08-03T06:13:09;7.53;;;3.40;;
73684;SDS011;61985;51.070;14.064;2022-08-03T06:15:34;5.78;;;3.55;;
73684;SDS011;61985;51.070;14.064;2022-08-03T06:18:00;7.07;;;3.30;;
73684;SDS011;61985;51.070;14.064;2022-08-03T06:20:25;6.68;;;3.40;;
73684;SDS011;61985;51.070;14.064;2022-08-03T06:22:51;5.43;;;3.38;;
73684;SDS011;61985;51.070;14.064;2022-08-03T06:25:17;6.47;;;3.25;;
73684;SDS011;61985;51.070;14.064;2022-08-03T06:27:43;5.13;;;3.30;;
73684;SDS011;61985;51.070;14.064;2022-08-03T06:30:09;5.35;;;3.05;;
73684;SDS011;61985;51.070;14.064;2022-08-03T06:32:36;7.00;;;3.40;;
73684;SDS011;61985;51.070;14.064;2022-08-03T06:35:02;5.38;;;3.08;;
73684;SDS011;61985;51.070;14.064;2022-08-03T06:37:28;5.68;;;3.15;;
73684;SDS011;61985;51.070;14.064;2022-08-03T06:39:54;5.47;;;3.20;;
73684;SDS011;61985;51.070;14.064;2022-08-03T06:42:19;4.68;;;3.50;;
73684;SDS011;61985;51.070;14.064;2022-08-03T06:44:45;8.05;;;2.90;;
73684;SDS011;61985;51.070;14.064;2022-08-03T06:47:10;4.18;;;2.88;;
73684;SDS011;61985;51.070;14.064;2022-08-03T06:49:35;4.47;;;2.90;;
73684;SDS011;61985;51.070;14.064;2022-08-03T06:52:01;5.57;;;2.95;;
73684;SDS011;61985;51.070;14.064;2022-08-03T06:54:26;4.45;;;2.80;;
73684;SDS011;61985;51.070;14.064;2022-08-03T06:56:51;3.60;;;2.85;;
73684;SDS011;61985;51.070;14.064;2022-08-03T06:59:17;5.40;;;2.90;;
73684;SDS011;61985;51.070;14.064;2022-08-03T07:01:43;4.03;;;2.85;;
73684;SDS011;61985;51.070;14.064;2022-08-03T07:04:08;6.28;;;3.03;;
73684;SDS011;61985;51.070;14.064;2022-08-03T07:06:34;4.93;;;2.92;;
73684;SDS011;61985;51.070;14.064;2022-08-03T07:08:59;4.93;;;2.90;;
73684;SDS011;61985;51.070;14.064;2022-08-03T07:11:25;5.40;;;2.75;;
73684;SDS011;61985;51.070;14.064;2022-08-03T07:13:52;3.95;;;3.15;;
73684;SDS011;61985;51.070;14.064;2022-08-03T07:16:17;3.78;;;2.85;;
73684;SDS011;61985;51.070;14.064;2022-08-03T07:18:43;3.80;;;2.75;;
73684;SDS011;61985;51.070;14.064;2022-08-03T07:21:08;4.00;;;2.70;;
73684;SDS011;61985;51.070;14.064;2022-08-03T07:23:35;4.25;;;3.00;;
73684;SDS011;61985;51.070;14.064;2022-08-03T07:26:00;4.85;;;2.88;;
73684;SDS011;61985;51.070;14.064;2022-08-03T07:28:25;4.70;;;3.20;;
73684;SDS011;61985;51.070;14.064;2022-08-03T07:30:52;5.43;;;3.25;;
73684;SDS011;61985;51.070;14.064;2022-08-03T07:33:17;6.68;;;2.83;;
73684;SDS011;61985;51.070;14.064;2022-08-03T07:35:42;7.20;;;3.00;;
73684;SDS011;61985;51.070;14.064;2022-08-03T07:38:07;7.43;;;3.25;;
73684;SDS011;61985;51.070;14.064;2022-08-03T07:40:33;5.45;;;3.08;;
73684;SDS011;61985;51.070;14.064;2022-08-03T07:42:58;6.68;;;2.65;;
73684;SDS011;61985;51.070;14.064;2022-08-03T07:45:24;5.13;;;3.17;;
73684;SDS011;61985;51.070;14.064;2022-08-03T07:47:50;4.53;;;2.85;;
73684;SDS011;61985;51.070;14.064;2022-08-03T07:50:15;7.15;;;3.10;;
73684;SDS011;61985;51.070;14.064;2022-08-03T07:52:41;3.97;;;2.92;;
73684;SDS011;61985;51.070;14.064;2022-08-03T07:55:12;11.02;;;3.45;;
73684;SDS011;61985;51.070;14.064;2022-08-03T07:57:38;5.25;;;2.58;;
73684;SDS011;61985;51.070;14.064;2022-08-03T08:00:04;5.63;;;2.90;;
73684;SDS011;61985;51.070;14.064;2022-08-03T08:02:33;4.75;;;2.70;;
73684;SDS011;61985;51.070;14.064;2022-08-03T08:04:58;4.85;;;2.80;;
73684;SDS011;61985;51.070;14.064;2022-08-03T08:07:23;5.68;;;2.63;;
73684;SDS011;61985;51.070;14.064;2022-08-03T08:09:50;3.92;;;2.75;;
73684;SDS011;61985;51.070;14.064;2022-08-03T08:12:15;4.43;;;2.78;;
73684;SDS011;61985;51.070;14.064;2022-08-03T08:14:40;4.90;;;3.00;;
73684;SDS011;61985;51.070;14.064;2022-08-03T08:17:06;5.93;;;2.38;;
73684;SDS011;61985;51.070;14.064;2022-08-03T08:19:31;4.88;;;2.90;;
73684;SDS011;61985;51.070;14.064;2022-08-03T08:21:57;5.80;;;2.65;;
73684;SDS011;61985;51.070;14.064;2022-08-03T08:24:22;4.38;;;2.70;;
73684;SDS011;61985;51.070;14.064;2022-08-03T08:26:47;3.90;;;2.80;;
73684;SDS011;61985;51.070;14.064;2022-08-03T08:29:12;5.35;;;2.72;;
73684;SDS011;61985;51.070;14.064;2022-08-03T08:31:38;4.00;;;2.60;;
73684;SDS011;61985;51.070;14.064;2022-08-03T08:34:03;6.10;;;3.17;;
73684;SDS011;61985;51.070;14.064;2022-08-03T08:36:33;5.68;;;2.90;;
73684;SDS011;61985;51.070;14.064;2022-08-03T08:38:59;6.38;;;2.90;;
73684;SDS011;61985;51.070;14.064;2022-08-03T08:41:25;4.90;;;2.70;;
73684;SDS011;61985;51.070;14.064;2022-08-03T08:43:52;3.78;;;2.80;;
73684;SDS011;61985;51.070;14.064;2022-08-03T08:46:18;4.80;;;2.88;;
73684;SDS011;61985;51.070;14.064;2022-08-03T08:48:44;4.43;;;2.55;;
73684;SDS011;61985;51.070;14.064;2022-08-03T08:51:10;4.75;;;2.80;;
73684;SDS011;61985;51.070;14.064;2022-08-03T08:53:36;3.72;;;2.40;;
73684;SDS011;61985;51.070;14.064;2022-08-03T08:56:05;3.88;;;2.50;;
73684;SDS011;61985;51.070;14.064;2022-08-03T08:58:39;3.58;;;2.50;;
73684;SDS011;61985;51.070;14.064;2022-08-03T09:01:10;7.38;;;2.60;;
73684;SDS011;61985;51.070;14.064;2022-08-03T09:03:36;6.35;;;2.22;;
73684;SDS011;61985;51.070;14.064;2022-08-03T09:06:02;2.65;;;2.15;;
73684;SDS011;61985;51.070;14.064;2022-08-03T09:08:29;6.43;;;2.45;;
73684;SDS011;61985;51.070;14.064;2022-08-03T09:10:55;3.53;;;2.42;;
73684;SDS011;61985;51.070;14.064;2022-08-03T09:13:20;3.05;;;2.30;;
73684;SDS011;61985;51.070;14.064;2022-08-03T09:15:46;3.25;;;2.42;;
73684;SDS011;61985;51.070;14.064;2022-08-03T09:18:11;3.40;;;2.38;;
73684;SDS011;61985;51.070;14.064;2022-08-03T09:20:39;3.20;;;2.22;;
73684;SDS011;61985;51.070;14.064;2022-08-03T09:23:05;7.82;;;2.65;;
73684;SDS011;61985;51.070;14.064;2022-08-03T09:25:36;3.00;;;2.30;;
73684;SDS011;61985;51.070;14.064;2022-08-03T09:28:04;2.80;;;2.25;;
73684;SDS011;61985;51.070;14.064;2022-08-03T09:30:33;3.53;;;2.45;;
73684;SDS011;61985;51.070;14.064;2022-08-03T09:33:00;3.08;;;2.25;;
73684;SDS011;61985;51.070;14.064;2022-08-03T09:35:26;2.85;;;2.42;;
73684;SDS011;61985;51.070;14.064;2022-08-03T09:38:07;4.05;;;2.60;;
73684;SDS011;61985;51.070;14.064;2022-08-03T09:40:50;3.83;;;2.50;;
73684;SDS011;61985;51.070;14.064;2022-08-03T09:43:16;3.47;;;2.40;;
73684;SDS011;61985;51.070;14.064;2022-08-03T09:45:41;5.90;;;2.30;;
73684;SDS011;61985;51.070;14.064;2022-08-03T09:48:24;3.45;;;2.35;;
73684;SDS011;61985;51.070;14.064;2022-08-03T09:50:51;4.88;;;2.50;;
73684;SDS011;61985;51.070;14.064;2022-08-03T09:53:18;8.68;;;2.40;;
73684;SDS011;61985;51.070;14.064;2022-08-03T09:55:56;3.28;;;2.40;;
73684;SDS011;61985;51.070;14.064;2022-08-03T09:58:23;5.80;;;2.33;;
73684;SDS011;61985;51.070;14.064;2022-08-03T10:00:59;3.35;;;2.38;;
73684;SDS011;61985;51.070;14.064;2022-08-03T10:03:29;4.50;;;2.40;;
73684;SDS011;61985;51.070;14.064;2022-08-03T10:06:13;4.03;;;2.30;;
73684;SDS011;61985;51.070;14.064;2022-08-03T10:08:40;2.97;;;2.13;;
73684;SDS011;61985;51.070;14.064;2022-08-03T10:11:05;6.32;;;2.50;;
73684;SDS011;61985;51.070;14.064;2022-08-03T10:13:30;2.92;;;2.00;;
73684;SDS011;61985;51.070;14.064;2022-08-03T10:15:56;3.85;;;2.50;;
73684;SDS011;61985;51.070;14.064;2022-08-03T10:18:21;4.85;;;2.30;;
73684;SDS011;61985;51.070;14.064;2022-08-03T10:20:54;4.05;;;2.25;;
73684;SDS011;61985;51.070;14.064;2022-08-03T10:23:33;2.35;;;2.15;;
73684;SDS011;61985;51.070;14.064;2022-08-03T10:26:00;2.75;;;2.08;;
73684;SDS011;61985;51.070;14.064;2022-08-03T10:28:27;4.47;;;2.20;;
73684;SDS011;61985;51.070;14.064;2022-08-03T10:30:59;5.55;;;2.00;;
73684;SDS011;61985;51.070;14.064;2022-08-03T10:33:28;11.98;;;2.35;;
73684;SDS011;61985;51.070;14.064;2022-08-03T10:35:58;3.08;;;2.40;;
73684;SDS011;61985;51.070;14.064;2022-08-03T10:38:31;4.07;;;2.00;;
73684;SDS011;61985;51.070;14.064;2022-08-03T10:41:01;3.85;;;2.00;;
73684;SDS011;61985;51.070;14.064;2022-08-03T10:43:33;4.38;;;2.22;;
73684;SDS011;61985;51.070;14.064;2022-08-03T10:46:03;2.80;;;1.90;;
73684;SDS011;61985;51.070;14.064;2022-08-03T10:48:30;3.80;;;2.40;;
73684;SDS011;61985;51.070;14.064;2022-08-03T10:50:57;3.95;;;2.30;;
73684;SDS011;61985;51.070;14.064;2022-08-03T10:53:35;4.32;;;2.47;;
73684;SDS011;61985;51.070;14.064;2022-08-03T10:56:02;4.25;;;2.00;;
73684;SDS011;61985;51.070;14.064;2022-08-03T11:01:16;4.07;;;2.42;;
73684;SDS011;61985;51.070;14.064;2022-08-03T11:06:21;3.53;;;2.20;;
73684;SDS011;61985;51.070;14.064;2022-08-03T11:08:49;3.05;;;2.20;;
73684;SDS011;61985;51.070;14.064;2022-08-03T11:11:38;7.40;;;2.40;;
73684;SDS011;61985;51.070;14.064;2022-08-03T11:16:45;5.28;;;2.53;;
73684;SDS011;61985;51.070;14.064;2022-08-03T11:19:14;3.75;;;2.35;;
73684;SDS011;61985;51.070;14.064;2022-08-03T11:30:08;5.40;;;2.40;;
73684;SDS011;61985;51.070;14.064;2022-08-03T11:35:13;3.70;;;2.17;;
73684;SDS011;61985;51.070;14.064;2022-08-03T11:40:49;3.40;;;2.25;;
73684;SDS011;61985;51.070;14.064;2022-08-03T11:46:06;4.65;;;2.30;;
73684;SDS011;61985;51.070;14.064;2022-08-03T11:48:40;3.75;;;2.25;;
73684;SDS011;61985;51.070;14.064;2022-08-03T11:51:17;3.80;;;2.40;;
73684;SDS011;61985;51.070;14.064;2022-08-03T11:53:46;3.13;;;2.40;;
73684;SDS011;61985;51.070;14.064;2022-08-03T11:56:17;3.65;;;2.40;;
73684;SDS011;61985;51.070;14.064;2022-08-03T11:58:51;6.30;;;2.20;;
73684;SDS011;61985;51.070;14.064;2022-08-03T12:01:19;5.03;;;2.20;;
73684;SDS011;61985;51.070;14.064;2022-08-03T12:03:45;4.28;;;2.50;;
73684;SDS011;61985;51.070;14.064;2022-08-03T12:06:12;3.88;;;2.20;;
73684;SDS011;61985;51.070;14.064;2022-08-03T12:08:39;4.00;;;2.35;;
73684;SDS011;61985;51.070;14.064;2022-08-03T12:11:05;3.90;;;2.17;;
73684;SDS011;61985;51.070;14.064;2022-08-03T12:13:51;4.18;;;2.42;;
73684;SDS011;61985;51.070;14.064;2022-08-03T12:16:17;3.72;;;2.42;;
73684;SDS011;61985;51.070;14.064;2022-08-03T12:18:57;4.72;;;2.28;;
73684;SDS011;61985;51.070;14.064;2022-08-03T12:21:23;5.30;;;2.40;;
73684;SDS011;61985;51.070;14.064;2022-08-03T12:23:49;3.90;;;2.90;;
73684;SDS011;61985;51.070;14.064;2022-08-03T12:26:19;5.53;;;2.53;;
73684;SDS011;61985;51.070;14.064;2022-08-03T12:28:48;3.60;;;2.38;;
73684;SDS011;61985;51.070;14.064;2022-08-03T12:31:14;2.75;;;2.40;;
73684;SDS011;61985;51.070;14.064;2022-08-03T12:34:01;2.60;;;2.10;;
73684;SDS011;61985;51.070;14.064;2022-08-03T12:36:27;4.57;;;2.20;;
73684;SDS011;61985;51.070;14.064;2022-08-03T12:38:58;3.45;;;2.28;;
73684;SDS011;61985;51.070;14.064;2022-08-03T12:43:54;3.97;;;2.17;;
73684;SDS011;61985;51.070;14.064;2022-08-03T12:46:19;6.40;;;2.28;;
73684;SDS011;61985;51.070;14.064;2022-08-03T12:51:30;6.40;;;2.42;;
73684;SDS011;61985;51.070;14.064;2022-08-03T12:53:57;2.58;;;2.25;;
73684;SDS011;61985;51.070;14.064;2022-08-03T12:56:23;3.38;;;2.38;;
73684;SDS011;61985;51.070;14.064;2022-08-03T12:58:48;2.92;;;2.17;;
73684;SDS011;61985;51.070;14.064;2022-08-03T13:01:14;2.33;;;2.10;;
73684;SDS011;61985;51.070;14.064;2022-08-03T13:03:47;3.70;;;2.40;;
73684;SDS011;61985;51.070;14.064;2022-08-03T13:06:14;4.15;;;2.30;;
73684;SDS011;61985;51.070;14.064;2022-08-03T13:08:41;3.03;;;2.30;;
73684;SDS011;61985;51.070;14.064;2022-08-03T13:13:50;5.22;;;2.10;;
73684;SDS011;61985;51.070;14.064;2022-08-03T13:16:16;5.07;;;2.33;;
73684;SDS011;61985;51.070;14.064;2022-08-03T13:18:42;4.82;;;2.15;;
73684;SDS011;61985;51.070;14.064;2022-08-03T13:21:10;5.25;;;2.33;;
73684;SDS011;61985;51.070;14.064;2022-08-03T13:23:36;2.80;;;2.33;;
73684;SDS011;61985;51.070;14.064;2022-08-03T13:26:01;6.97;;;2.50;;
73684;SDS011;61985;51.070;14.064;2022-08-03T13:28:27;6.88;;;2.25;;
73684;SDS011;61985;51.070;14.064;2022-08-03T13:30:52;3.55;;;2.05;;
73684;SDS011;61985;51.070;14.064;2022-08-03T13:33:18;3.63;;;2.10;;
73684;SDS011;61985;51.070;14.064;2022-08-03T13:35:44;4.32;;;2.20;;
73684;SDS011;61985;51.070;14.064;2022-08-03T13:38:09;3.53;;;2.10;;
73684;SDS011;61985;51.070;14.064;2022-08-03T13:40:34;3.40;;;2.25;;
73684;SDS011;61985;51.070;14.064;2022-08-03T13:43:01;4.55;;;1.90;;
73684;SDS011;61985;51.070;14.064;2022-08-03T13:45:27;2.42;;;2.00;;
73684;SDS011;61985;51.070;14.064;2022-08-03T13:47:53;4.95;;;2.10;;
73684;SDS011;61985;51.070;14.064;2022-08-03T13:50:18;5.55;;;2.08;;
73684;SDS011;61985;51.070;14.064;2022-08-03T13:52:43;4.22;;;2.00;;
73684;SDS011;61985;51.070;14.064;2022-08-03T13:55:10;3.15;;;2.05;;
73684;SDS011;61985;51.070;14.064;2022-08-03T13:57:36;4.53;;;1.92;;
73684;SDS011;61985;51.070;14.064;2022-08-03T14:00:02;3.15;;;2.10;;
73684;SDS011;61985;51.070;14.064;2022-08-03T14:02:28;2.90;;;2.15;;
73684;SDS011;61985;51.070;14.064;2022-08-03T14:04:53;2.97;;;2.03;;
73684;SDS011;61985;51.070;14.064;2022-08-03T14:07:19;4.57;;;2.22;;
73684;SDS011;61985;51.070;14.064;2022-08-03T14:09:44;4.35;;;2.13;;
73684;SDS011;61985;51.070;14.064;2022-08-03T14:12:09;3.22;;;1.92;;
73684;SDS011;61985;51.070;14.064;2022-08-03T14:14:35;7.40;;;2.40;;
73684;SDS011;61985;51.070;14.064;2022-08-03T14:17:00;4.75;;;2.15;;
73684;SDS011;61985;51.070;14.064;2022-08-03T14:19:26;2.80;;;1.80;;
73684;SDS011;61985;51.070;14.064;2022-08-03T14:21:51;4.22;;;2.40;;
73684;SDS011;61985;51.070;14.064;2022-08-03T14:24:16;2.40;;;2.00;;
73684;SDS011;61985;51.070;14.064;2022-08-03T14:26:41;5.53;;;2.20;;
73684;SDS011;61985;51.070;14.064;2022-08-03T14:29:07;3.92;;;2.20;;
73684;SDS011;61985;51.070;14.064;2022-08-03T14:31:32;3.45;;;1.80;;
73684;SDS011;61985;51.070;14.064;2022-08-03T14:33:58;4.72;;;1.80;;
73684;SDS011;61985;51.070;14.064;2022-08-03T14:36:23;4.03;;;2.10;;
73684;SDS011;61985;51.070;14.064;2022-08-03T14:38:49;5.40;;;2.15;;
73684;SDS011;61985;51.070;14.064;2022-08-03T14:41:14;2.65;;;1.83;;
73684;SDS011;61985;51.070;14.064;2022-08-03T14:43:40;6.55;;;2.00;;
73684;SDS011;61985;51.070;14.064;2022-08-03T14:46:05;4.53;;;2.08;;
73684;SDS011;61985;51.070;14.064;2022-08-03T14:48:30;3.95;;;2.00;;
73684;SDS011;61985;51.070;14.064;2022-08-03T14:50:56;3.05;;;1.90;;
73684;SDS011;61985;51.070;14.064;2022-08-03T14:53:22;3.95;;;2.10;;
73684;SDS011;61985;51.070;14.064;2022-08-03T14:55:48;3.08;;;2.10;;
73684;SDS011;61985;51.070;14.064;2022-08-03T14:58:13;10.15;;;2.28;;
73684;SDS011;61985;51.070;14.064;2022-08-03T15:00:39;5.57;;;2.03;;
73684;SDS011;61985;51.070;14.064;2022-08-03T15:03:05;2.42;;;1.90;;
73684;SDS011;61985;51.070;14.064;2022-08-03T15:05:30;4.15;;;2.10;;
73684;SDS011;61985;51.070;14.064;2022-08-03T15:07:55;5.38;;;2.30;;
73684;SDS011;61985;51.070;14.064;2022-08-03T15:10:21;5.18;;;2.08;;
73684;SDS011;61985;51.070;14.064;2022-08-03T15:12:46;5.32;;;2.10;;
73684;SDS011;61985;51.070;14.064;2022-08-03T15:15:11;3.75;;;2.20;;
73684;SDS011;61985;51.070;14.064;2022-08-03T15:17:37;3.95;;;2.15;;
73684;SDS011;61985;51.070;14.064;2022-08-03T15:20:03;6.25;;;1.95;;